Airport Name : Vancouver Intl

Other Name : Vancouver Intl

ICAO : CYVR

IATA : YVR

FAA :

Latitude : 49.193889

Longitude : -123.184444

Country : Canada

Local Date and Time : 24 Jun 2024 22:35

 

TAF (Terminal Aerodrome Forecast)

TAF CYVR 250240Z 2503/2606 27006KT P6SM SCT050 SCT240 BECMG 2506/2508 09006KT FM250900 09006KT P6SM SCT030 SCT240 BECMG 2510/2512 VRB03KT BECMG 2513/2515 29008KT FM251500 29008KT P6SM SCT030 BKN200 BECMG 2516/2518 29012KT BECMG 2601/2603 29008KT RMK NXT FCST BY 250600Z

 

METAR (METeorological Aerodrome Report)